VQPR Airport Information

Runway Information
Runway 15 Length 6445 ft width 95 ft
Elevation 7355 ft Threshold 0 ft Heading 151
Runway 33 Length 6445 ft Width 95 ft
Elevation 7328 ft Threshold 0 ft Heading 331
Airport Frequencies
Airport Navaids
Type NDB Name Paro Frequency 410 KHZ
Type VOR Name Paro Frequency 108400 KHZ
Airport Weather Information & NOTAM
ADDS - METARS form results

(0942 UTC 29 May 2020)
Data provider http://aviationweather.gov/metar/data/
 
METAR text: VQPR 290930Z VRB04KT -RA 9999 SCT020 FEW035CB BKN080 16/11 Q1018
Conditions at: VQPR (PARO , BT) observed 0930 UTC 29 May 2020
Temperature: 16.0°C (61°F)
Dewpoint: 11.0°C (52°F) [RH = 72%]
Pressure (altimeter): 30.06 inches Hg (1018.0 mb)
Winds: variable direction winds at 5 MPH (4 knots; 2.1 m/s)
Visibility: 6 or more miles (10+ km)
Ceiling: 8000 feet AGL
Clouds: scattered clouds at 2000 feet AGL
few clouds at 3500 feet AGL
broken clouds at 8000 feet AGL
Weather: -RA  (light rain)

METAR text: VQPR 290900Z 17006KT 9999 SCT020 FEW035CB OVC080 17/12 Q1018
Conditions at: VQPR (PARO , BT) observed 0900 UTC 29 May 2020
Temperature: 17.0°C (63°F)
Dewpoint: 12.0°C (54°F) [RH = 72%]
Pressure (altimeter): 30.06 inches Hg (1018.0 mb)
Winds: from the S (170 degrees) at 7 MPH (6 knots; 3.1 m/s)
Visibility: 6 or more miles (10+ km)
Ceiling: 8000 feet AGL
Clouds: scattered clouds at 2000 feet AGL
few clouds at 3500 feet AGL
overcast cloud deck at 8000 feet AGL
Weather: no significant weather observed at this time